Time;durP1;ratioP1;P1;durP2;ratioP2;P2;SDS_P1;SDS_P2;PMS_P1;PMS_P2;Temp;Humidity;BMP_temperature;BMP_pressure;BME280_temperature;BME280_humidity;BME280_pressure;Samples;Min_cycle;Max_cycle;Signal;HPM_P1;HPM_P2
2020/12/31 00:00:09;;;;;;;30.62;12.88;;;;;;;7.08;96.93;99614.52;1670348;85;21186;-61
2020/12/31 00:02:37;;;;;;;34.40;14.53;;;;;;;7.08;96.98;99624.14;1670325;85;21263;-62
2020/12/31 00:05:05;;;;;;;33.88;13.50;;;;;;;7.07;97.03;99625.05;1670139;85;21186;-63
2020/12/31 00:07:37;;;;;;;27.85;13.32;;;;;;;7.06;96.96;99622.02;1650900;85;23498;-65
2020/12/31 00:10:11;;;;;;;28.50;12.43;;;;;;;7.04;96.98;99626.44;1651325;86;21268;-65
2020/12/31 00:12:43;;;;;;;31.40;12.60;;;;;;;7.05;97.08;99626.41;1626769;86;21193;-64
2020/12/31 00:15:15;;;;;;;34.18;13.75;;;;;;;7.05;97.20;99628.17;1652769;86;21185;-65
2020/12/31 00:17:44;;;;;;;31.65;13.85;;;;;;;7.05;97.39;99641.27;1656567;86;21181;-64
2020/12/31 00:20:13;;;;;;;35.90;14.50;;;;;;;7.06;97.38;99630.75;1656537;86;21200;-61
2020/12/31 00:22:41;;;;;;;37.00;15.78;;;;;;;7.06;97.52;99615.47;1643030;87;22384;-61
2020/12/31 00:25:09;;;;;;;37.28;14.87;;;;;;;7.10;97.57;99627.57;1642816;86;21167;-62
2020/12/31 00:27:38;;;;;;;42.17;14.98;;;;;;;7.11;97.58;99621.45;1642922;87;21399;-63
2020/12/31 00:30:10;;;;;;;36.40;13.72;;;;;;;7.12;97.49;99633.63;1642777;87;21633;-63
2020/12/31 00:32:37;;;;;;;35.10;15.58;;;;;;;7.14;97.41;99621.34;1642746;87;21218;-62
2020/12/31 00:35:06;;;;;;;41.55;15.13;;;;;;;7.14;97.44;99631.81;1642857;87;21174;-62
2020/12/31 00:37:35;;;;;;;35.10;14.10;;;;;;;7.15;97.47;99628.28;1642888;87;21199;-62
2020/12/31 00:40:04;;;;;;;33.25;14.15;;;;;;;7.19;97.48;99624.66;1642852;87;21382;-62
2020/12/31 00:42:32;;;;;;;33.83;13.45;;;;;;;7.21;97.40;99622.01;1642778;87;21255;-62
2020/12/31 00:45:00;;;;;;;36.42;14.40;;;;;;;7.21;97.39;99616.77;1642713;87;21594;-63
2020/12/31 00:47:28;;;;;;;30.40;12.90;;;;;;;7.23;97.33;99610.58;1633982;86;21219;-63
2020/12/31 00:49:57;;;;;;;34.38;14.85;;;;;;;7.25;97.26;99608.77;1627484;88;21223;-62
2020/12/31 00:52:25;;;;;;;27.02;12.45;;;;;;;7.25;97.26;99608.77;1632349;86;21400;-61
2020/12/31 00:54:53;;;;;;;36.53;15.32;;;;;;;7.25;97.10;99608.77;1632463;87;22066;-62
2020/12/31 00:57:21;;;;;;;33.33;13.88;;;;;;;7.25;97.09;99614.01;1632387;86;21187;-62
2020/12/31 00:59:49;;;;;;;44.80;15.25;;;;;;;7.24;97.14;99618.83;1618034;88;21226;-62
2020/12/31 01:02:18;;;;;;;40.17;15.58;;;;;;;7.24;97.14;99614.90;1632293;87;21587;-62
2020/12/31 01:04:46;;;;;;;32.75;14.75;;;;;;;7.22;97.14;99619.78;1629267;88;21415;-63
2020/12/31 01:07:19;;;;;;;51.77;16.57;;;;;;;7.19;97.12;99624.66;1632282;87;21642;-63
2020/12/31 01:09:47;;;;;;;44.33;16.05;;;;;;;7.15;97.10;99617.80;1632320;87;21316;-62
2020/12/31 01:12:15;;;;;;;37.05;15.72;;;;;;;7.11;97.09;99624.06;1624416;82;21760;-64
2020/12/31 01:14:42;;;;;;;34.25;14.53;;;;;;;7.10;97.09;99619.72;1626619;88;21324;-63
2020/12/31 01:17:10;;;;;;;34.05;15.55;;;;;;;7.11;97.07;99617.52;1626440;87;22183;-63
2020/12/31 01:19:38;;;;;;;35.03;15.32;;;;;;;7.09;96.99;99627.18;1626316;88;21670;-64
2020/12/31 01:22:05;;;;;;;38.42;15.72;;;;;;;7.09;96.94;99628.48;1626447;86;21265;-63
2020/12/31 01:24:33;;;;;;;34.03;15.95;;;;;;;7.05;97.01;99626.86;1626444;88;21282;-62
2020/12/31 01:27:13;;;;;;;;;;;;;;;;;;;;;
2020/12/31 01:29:40;;;;;;;41.18;15.58;;;;;;;7.09;97.11;99628.48;1846260;76;26677;-62
2020/12/31 01:32:08;;;;;;;40.35;17.30;;;;;;;7.03;97.13;99627.36;1808588;78;21080;-62
2020/12/31 01:34:35;;;;;;;39.30;15.72;;;;;;;7.03;97.12;99629.97;1784115;80;21418;-63
2020/12/31 01:37:05;;;;;;;38.65;13.55;;;;;;;7.04;97.44;99622.52;1784179;80;21053;-62
2020/12/31 01:39:33;;;;;;;51.53;18.52;;;;;;;7.05;97.63;99626.86;1784266;79;21115;-61
2020/12/31 01:42:04;;;;;;;49.53;18.40;;;;;;;7.06;97.95;99622.02;1784080;80;21174;-62
2020/12/31 01:44:32;;;;;;;46.70;20.68;;;;;;;7.06;98.51;99628.14;1784216;80;21154;-63
2020/12/31 01:47:00;;;;;;;53.98;18.35;;;;;;;7.11;98.49;99624.91;1784185;80;22208;-62
2020/12/31 01:49:30;;;;;;;50.05;19.65;;;;;;;7.12;98.66;99623.14;1784093;80;21570;-62
2020/12/31 01:51:58;;;;;;;46.60;18.65;;;;;;;7.14;98.93;99623.96;1784064;79;21179;-62
2020/12/31 01:54:26;;;;;;;55.43;18.52;;;;;;;7.14;98.96;99622.65;1753915;80;21146;-62
2020/12/31 01:56:56;;;;;;;46.00;19.45;;;;;;;7.14;98.98;99620.88;1784055;80;21119;-62
2020/12/31 01:59:24;;;;;;;54.90;19.87;;;;;;;7.18;99.21;99622.97;1784151;80;22228;-63
2020/12/31 02:01:52;;;;;;;47.23;17.92;;;;;;;7.20;99.38;99626.40;1783976;80;21160;-62
2020/12/31 02:04:21;;;;;;;46.13;17.52;;;;;;;7.22;99.58;99620.63;1783883;79;21111;-62
2020/12/31 02:06:51;;;;;;;38.90;17.30;;;;;;;7.25;99.58;99619.25;1784130;80;21150;-63
2020/12/31 02:09:18;;;;;;;47.78;17.98;;;;;;;7.29;99.49;99614.33;1784416;80;21168;-61
2020/12/31 02:11:46;;;;;;;41.85;18.27;;;;;;;7.32;99.55;99624.69;1784110;79;21235;-62
2020/12/31 02:14:14;;;;;;;50.12;19.30;;;;;;;7.34;99.74;99611.09;1784065;80;21685;-63
2020/12/31 02:16:44;;;;;;;49.18;18.48;;;;;;;7.37;99.64;99606.67;1784061;80;21162;-62
2020/12/31 02:19:14;;;;;;;45.73;18.42;;;;;;;7.39;99.70;99606.17;1784102;80;21601;-62
2020/12/31 02:21:47;;;;;;;55.40;19.80;;;;;;;7.41;99.65;99603.02;1784162;79;21443;-61
2020/12/31 02:24:15;;;;;;;56.95;19.30;;;;;;;7.40;99.68;99605.25;1781262;80;22245;-61
2020/12/31 02:26:45;;;;;;;56.48;19.45;;;;;;;7.40;99.69;99601.31;1780382;80;21296;-63
2020/12/31 02:29:14;;;;;;;54.05;20.57;;;;;;;7.39;99.71;99587.83;1784545;80;21657;-61
2020/12/31 02:31:43;;;;;;;48.15;19.45;;;;;;;7.39;99.69;99591.76;1786189;80;21178;-61
2020/12/31 02:34:14;;;;;;;44.10;19.25;;;;;;;7.37;99.71;99587.02;1786266;80;21123;-61
2020/12/31 02:36:42;;;;;;;42.95;18.10;;;;;;;7.36;99.65;99586.14;1785895;80;21286;-62
2020/12/31 02:39:13;;;;;;;47.78;19.25;;;;;;;7.35;99.70;99581.36;1789463;80;21098;-61
2020/12/31 02:41:40;;;;;;;55.60;20.15;;;;;;;7.33;99.77;99582.32;1760745;80;21171;-62
2020/12/31 02:44:09;;;;;;;45.45;18.65;;;;;;;7.31;99.85;99588.06;1789053;80;21522;-61
2020/12/31 02:46:37;;;;;;;38.98;19.15;;;;;;;7.32;99.84;99583.24;1789302;79;21235;-62
2020/12/31 02:49:06;;;;;;;43.75;20.12;;;;;;;7.29;99.98;99589.44;1789227;79;22720;-62
2020/12/31 02:51:35;;;;;;;33.28;17.05;;;;;;;7.31;100.00;99584.98;1789360;80;21577;-62
2020/12/31 02:54:04;;;;;;;44.03;18.70;;;;;;;7.34;99.95;99584.91;1789413;80;21146;-61
2020/12/31 02:56:32;;;;;;;33.33;15.55;;;;;;;7.34;99.95;99591.45;1789328;80;21197;-62
2020/12/31 02:59:00;;;;;;;41.85;17.73;;;;;;;7.35;99.97;99588.37;1789435;80;21633;-61
2020/12/31 03:01:27;;;;;;;34.45;17.82;;;;;;;7.33;100.00;99580.55;1789248;80;22059;-62
2020/12/31 03:03:55;;;;;;;44.67;19.23;;;;;;;7.36;100.00;99584.83;1789221;80;21186;-61
2020/12/31 03:06:22;;;;;;;45.10;18.55;;;;;;;7.32;100.00;99578.85;1789143;80;21130;-63
2020/12/31 03:08:51;;;;;;;37.35;17.15;;;;;;;7.35;100.00;99582.67;1789261;80;21712;-63
2020/12/31 03:11:21;;;;;;;39.83;18.23;;;;;;;7.37;100.00;99579.16;1789240;79;21610;-63
2020/12/31 03:13:50;;;;;;;43.42;18.07;;;;;;;7.35;100.00;99572.20;1725464;81;21430;-62
2020/12/31 03:16:20;;;;;;;45.08;18.30;;;;;;;7.35;100.00;99576.13;1736849;82;21128;-61
2020/12/31 03:18:48;;;;;;;34.83;17.02;;;;;;;7.37;100.00;99575.23;1737382;82;21140;-62
2020/12/31 03:21:16;;;;;;;39.98;17.25;;;;;;;7.35;99.95;99572.20;1736974;82;21188;-63
2020/12/31 03:23:44;;;;;;;39.30;17.05;;;;;;;7.33;99.92;99574.47;1737089;82;21148;-62
2020/12/31 03:26:12;;;;;;;38.98;17.35;;;;;;;7.34;99.88;99570.95;1737008;82;22160;-62
2020/12/31 03:28:40;;;;;;;48.02;20.10;;;;;;;7.31;99.94;99577.13;1737081;80;21619;-62
2020/12/31 03:31:07;;;;;;;45.45;18.05;;;;;;;7.29;99.91;99555.81;1737212;82;21651;-63
2020/12/31 03:33:35;;;;;;;35.05;17.92;;;;;;;7.29;99.98;99558.01;1737060;81;21199;-62
2020/12/31 03:36:04;;;;;;;40.58;20.17;;;;;;;7.27;100.00;99554.58;1737141;82;21698;-62
2020/12/31 03:38:31;;;;;;;38.75;16.07;;;;;;;7.27;100.00;99557.20;1768919;80;21634;-62
2020/12/31 03:40:59;;;;;;;42.20;17.92;;;;;;;7.29;100.00;99564.55;1779460;80;21653;-62
2020/12/31 03:43:27;;;;;;;45.25;19.62;;;;;;;7.28;100.00;99556.28;1779489;80;21236;-63
2020/12/31 03:45:54;;;;;;;42.75;17.73;;;;;;;7.30;100.00;99556.23;1780614;80;21961;-63
2020/12/31 03:48:22;;;;;;;35.48;17.40;;;;;;;7.30;99.97;99553.16;1781719;80;21635;-61
2020/12/31 03:50:50;;;;;;;48.17;18.42;;;;;;;7.30;99.97;99545.77;1781708;80;21200;-63
2020/12/31 03:53:17;;;;;;;40.98;19.73;;;;;;;7.27;99.98;99541.48;1781766;80;21192;-62
2020/12/31 03:55:45;;;;;;;36.75;17.37;;;;;;;7.27;99.97;99535.36;1781742;80;21164;-63
2020/12/31 03:58:13;;;;;;;32.88;14.93;;;;;;;7.28;99.83;99544.95;1781673;80;21182;-61
2020/12/31 04:00:40;;;;;;;31.10;15.18;;;;;;;7.25;99.70;99548.53;1782271;80;21131;-61
2020/12/31 04:03:09;;;;;;;41.58;18.00;;;;;;;7.27;99.55;99536.67;1782300;80;21321;-62
2020/12/31 04:05:36;;;;;;;38.48;17.80;;;;;;;7.29;99.38;99551.46;1782294;80;21123;-63
2020/12/31 04:08:05;;;;;;;39.05;18.12;;;;;;;7.29;99.25;99539.67;1780395;80;21234;-61
2020/12/31 04:10:33;;;;;;;33.63;15.25;;;;;;;7.29;99.09;99537.05;1779574;80;21147;-62
2020/12/31 04:13:01;;;;;;;38.88;17.60;;;;;;;7.31;98.95;99540.45;1779698;80;21630;-62
2020/12/31 04:15:30;;;;;;;32.88;16.37;;;;;;;7.32;98.78;99552.66;1779458;80;21349;-63
2020/12/31 04:17:57;;;;;;;39.03;17.60;;;;;;;7.29;98.62;99551.46;1779347;80;21193;-61
2020/12/31 04:20:26;;;;;;;42.38;16.32;;;;;;;7.31;98.51;99550.08;1779330;80;21138;-62
2020/12/31 04:22:54;;;;;;;44.27;16.97;;;;;;;7.31;98.25;99551.39;1779377;80;21192;-62
2020/12/31 04:25:22;;;;;;;44.48;18.20;;;;;;;7.30;98.07;99543.98;1779398;80;21176;-62
2020/12/31 04:27:50;;;;;;;41.28;18.57;;;;;;;7.29;97.87;99550.58;1779446;80;22095;-61
2020/12/31 04:30:17;;;;;;;34.78;17.60;;;;;;;7.31;97.75;99550.92;1775191;80;21606;-62
2020/12/31 04:32:45;;;;;;;43.00;19.50;;;;;;;7.30;97.39;99551.84;1774484;80;21194;-61
2020/12/31 04:35:13;;;;;;;44.73;19.92;;;;;;;7.29;97.17;99557.13;1774471;80;21187;-61
2020/12/31 04:37:40;;;;;;;34.45;17.98;;;;;;;7.32;97.09;99565.75;1770538;79;21511;-63
2020/12/31 04:40:10;;;;;;;48.35;20.48;;;;;;;7.30;96.84;99570.64;1774511;80;21566;-61
2020/12/31 04:42:37;;;;;;;36.88;17.20;;;;;;;7.32;96.77;99576.23;1774394;80;21183;-61
2020/12/31 04:45:06;;;;;;;41.00;18.12;;;;;;;7.32;96.68;99572.30;1770345;80;21205;-61
2020/12/31 04:47:44;;;;;;;33.65;16.32;;;;;;;7.32;96.21;99570.99;1776574;79;21614;-64
2020/12/31 04:50:12;;;;;;;34.48;17.82;;;;;;;7.33;96.03;99564.83;1771620;78;21623;-63
2020/12/31 04:52:40;;;;;;;30.00;15.40;;;;;;;7.34;95.74;99574.42;1775298;80;21352;-62
2020/12/31 04:55:09;;;;;;;36.75;16.50;;;;;;;7.35;95.32;99583.98;1776088;80;21099;-61
2020/12/31 04:57:37;;;;;;;34.45;15.93;;;;;;;7.33;94.89;99587.09;1776110;80;21184;-62
2020/12/31 05:00:05;;;;;;;37.10;17.50;;;;;;;7.34;94.53;99582.74;1776162;80;21223;-61
2020/12/31 05:02:32;;;;;;;32.00;16.85;;;;;;;7.37;94.54;99587.02;1776373;80;21575;-61
2020/12/31 05:05:00;;;;;;;30.62;15.03;;;;;;;7.35;94.54;99581.36;1776323;80;21568;-62
2020/12/31 05:07:29;;;;;;;34.95;16.45;;;;;;;7.37;94.35;99585.71;1776142;80;21170;-61
2020/12/31 05:10:10;;;;;;;45.08;18.75;;;;;;;7.34;94.22;99595.38;1775877;79;21606;-62
2020/12/31 05:12:38;;;;;;;38.70;17.20;;;;;;;7.35;94.16;99601.01;1760065;80;21108;-63
2020/12/31 05:15:06;;;;;;;43.95;18.23;;;;;;;7.35;94.02;99601.01;1745449;82;21146;-63
2020/12/31 05:17:34;;;;;;;36.98;18.10;;;;;;;7.35;93.92;99603.63;1745230;80;21605;-65
2020/12/31 05:20:15;;;;;;;40.17;19.27;;;;;;;7.35;93.91;99604.09;1745289;82;21182;-61
2020/12/31 05:22:42;;;;;;;43.15;18.00;;;;;;;7.34;94.00;99605.86;1745406;80;21194;-62
2020/12/31 05:25:12;;;;;;;43.75;18.20;;;;;;;7.32;93.99;99602.42;1745332;82;21174;-63
2020/12/31 05:27:40;;;;;;;41.00;19.40;;;;;;;7.34;93.96;99602.39;1745759;82;21154;-62
2020/12/31 05:30:09;;;;;;;36.98;17.90;;;;;;;7.31;93.97;99596.77;1765725;79;21818;-61
2020/12/31 05:32:40;;;;;;;38.73;18.73;;;;;;;7.32;93.91;99607.66;1776195;80;21214;-63
2020/12/31 05:35:12;;;;;;;37.60;19.23;;;;;;;7.34;93.82;99605.86;1776182;80;21163;-61
2020/12/31 05:39:02;;;;;;;41.28;17.62;;;;;;;7.37;93.65;99612.75;1782153;80;26607;-62
2020/12/31 05:41:33;;;;;;;37.17;17.73;;;;;;;7.31;93.62;99620.34;1756274;81;21198;-62
2020/12/31 05:44:08;;;;;;;35.33;17.52;;;;;;;7.32;93.64;99612.91;1729338;81;26255;-65
2020/12/31 05:46:37;;;;;;;38.38;17.25;;;;;;;7.32;93.57;99608.97;1737173;82;21241;-63
2020/12/31 05:49:09;;;;;;;34.55;15.88;;;;;;;7.34;93.63;99614.17;1720429;82;21194;-61
2020/12/31 05:51:38;;;;;;;45.10;18.50;;;;;;;7.33;93.74;99613.75;1691466;84;21170;-63
2020/12/31 05:54:14;;;;;;;41.70;19.50;;;;;;;7.32;93.87;99623.38;1691646;84;21618;-61
2020/12/31 05:56:44;;;;;;;46.55;20.23;;;;;;;7.30;94.15;99624.34;1691407;84;21300;-62
2020/12/31 05:59:27;;;;;;;50.58;20.62;;;;;;;7.30;94.14;99625.19;1691355;84;21190;-64
2020/12/31 06:01:58;;;;;;;47.10;19.90;;;;;;;7.30;94.38;99624.34;1701303;82;21238;-65
2020/12/31 06:04:34;;;;;;;38.15;17.85;;;;;;;7.28;94.56;99624.84;1716040;83;21175;-66
2020/12/31 06:07:04;;;;;;;43.50;18.23;;;;;;;7.27;94.62;99628.34;1718191;82;21147;-63
2020/12/31 06:09:36;;;;;;;43.85;19.77;;;;;;;7.26;94.81;99620.09;1718457;82;21383;-64
2020/12/31 06:12:07;;;;;;;47.62;19.57;;;;;;;7.25;94.89;99635.42;1718255;83;21685;-64
2020/12/31 06:17:13;;;;;;;33.33;18.25;;;;;;;7.29;95.19;99638.33;1832449;75;27104;-63
2020/12/31 06:19:42;;;;;;;40.70;18.10;;;;;;;7.20;95.50;99631.64;1753179;80;21669;-65
2020/12/31 06:22:11;;;;;;;37.42;16.30;;;;;;;7.17;95.83;99635.64;1772041;79;21380;-63
2020/12/31 06:24:47;;;;;;;36.13;17.87;;;;;;;7.16;96.00;99637.87;1752426;81;21919;-63
2020/12/31 06:27:16;;;;;;;38.65;19.75;;;;;;;7.18;96.07;99645.23;1753085;79;21159;-63
2020/12/31 06:29:47;;;;;;;43.75;20.90;;;;;;;7.16;96.17;99643.11;1764237;80;21123;-66
2020/12/31 06:32:36;;;;;;;44.73;20.55;;;;;;;7.19;96.37;99644.31;1838773;76;27876;-63
2020/12/31 06:35:09;;;;;;;49.80;19.92;;;;;;;7.16;96.61;99652.73;1776053;79;22239;-64
2020/12/31 06:37:38;;;;;;;43.68;18.87;;;;;;;7.18;96.59;99646.53;1810733;79;21335;-64
2020/12/31 06:40:23;;;;;;;45.83;20.82;;;;;;;7.20;96.71;99657.83;1779881;80;21195;-64
2020/12/31 06:43:09;;;;;;;43.17;21.68;;;;;;;7.22;96.79;99657.30;1763425;80;21296;-65
2020/12/31 06:45:44;;;;;;;46.85;21.37;;;;;;;7.22;96.88;99654.67;1780521;80;21041;-63
2020/12/31 06:48:33;;;;;;;51.58;22.75;;;;;;;7.24;96.76;99651.56;1756934;80;21079;-64
2020/12/31 06:51:08;;;;;;;46.50;21.33;;;;;;;7.25;96.75;99654.60;1758125;77;21210;-72
2020/12/31 06:53:47;;;;;;;44.80;20.50;;;;;;;7.27;96.77;99654.11;1747265;81;21063;-75
2020/12/31 06:56:19;;;;;;;52.53;23.05;;;;;;;7.28;96.70;99653.19;1741774;81;21188;-75
2020/12/31 06:58:47;;;;;;;50.55;21.93;;;;;;;7.29;96.64;99654.92;1745445;81;21208;-74
2020/12/31 07:01:28;;;;;;;45.75;21.93;;;;;;;7.29;96.62;99654.92;1730422;81;21164;-74
2020/12/31 07:03:59;;;;;;;40.60;20.82;;;;;;;7.33;96.55;99654.35;1713815;81;21440;-74
2020/12/31 07:06:27;;;;;;;;;;;;;;;7.35;96.46;99667.81;1753897;81;21226;-74
2020/12/31 07:09:00;;;;;;;47.40;21.73;;;;;;;7.35;96.31;99668.27;1719246;80;20279;-63
2020/12/31 07:11:40;;;;;;;49.65;21.50;;;;;;;7.30;96.28;99668.41;1705941;82;21165;-64
2020/12/31 07:14:20;;;;;;;47.25;21.02;;;;;;;7.32;96.21;99669.68;1687996;82;21160;-63
2020/12/31 07:17:05;;;;;;;43.40;19.10;;;;;;;7.33;96.18;99669.61;1725467;82;22492;-64
2020/12/31 07:19:40;;;;;;;47.93;20.88;;;;;;;7.34;96.10;99663.48;1705584;84;21233;-64
2020/12/31 07:22:13;;;;;;;49.00;20.30;;;;;;;7.37;96.09;99665.61;1715974;81;21605;-63
2020/12/31 07:25:09;;;;;;;43.75;20.60;;;;;;;7.38;95.96;99668.62;1735182;81;21217;-63
2020/12/31 07:27:40;;;;;;;43.45;20.68;;;;;;;7.39;95.87;99672.52;1735040;82;21165;-64
2020/12/31 07:30:18;;;;;;;45.63;19.85;;;;;;;7.38;95.90;99666.00;1724374;78;21401;-77
2020/12/31 07:33:09;;;;;;;50.85;21.30;;;;;;;7.38;95.94;99675.17;1759911;79;21673;-79
2020/12/31 07:35:40;;;;;;;40.12;17.75;;;;;;;7.37;96.02;99670.84;1751686;81;21107;-79
2020/12/31 07:38:11;;;;;;;45.52;19.42;;;;;;;7.41;96.00;99669.83;1753413;81;21139;-79
2020/12/31 07:40:47;;;;;;;43.33;19.65;;;;;;;7.40;95.92;99669.43;1737981;82;21126;-80
2020/12/31 07:43:26;;;;;;;44.30;20.23;;;;;;;7.43;95.92;99671.94;1754251;81;21213;-80
2020/12/31 07:46:01;;;;;;;45.60;19.37;;;;;;;7.43;95.84;99677.19;1758906;80;21158;-81
2020/12/31 07:48:29;;;;;;;50.28;21.93;;;;;;;7.44;95.86;99686.77;1780419;77;21460;-62
2020/12/31 07:51:01;;;;;;;47.13;20.65;;;;;;;7.46;95.86;99683.20;1756038;81;21520;-62
2020/12/31 07:53:29;;;;;;;48.20;21.48;;;;;;;7.45;95.86;99687.17;1725082;83;21201;-62
2020/12/31 07:55:58;;;;;;;48.92;22.85;;;;;;;7.44;95.89;99686.77;1747797;80;21418;-63
2020/12/31 07:58:32;;;;;;;53.25;21.17;;;;;;;7.44;95.98;99692.87;1712727;83;21636;-63
2020/12/31 08:01:02;;;;;;;50.23;20.55;;;;;;;7.42;96.04;99691.20;1748985;82;21163;-63
2020/12/31 08:03:30;;;;;;;48.28;20.75;;;;;;;7.39;96.03;99692.62;1709800;79;21230;-82
2020/12/31 08:08:43;;;;;;;46.10;22.22;;;;;;;7.42;96.25;99701.69;1893008;75;27779;-81
2020/12/31 08:11:11;;;;;;;43.98;20.43;;;;;;;7.35;96.37;99701.86;1864005;77;20996;-80
2020/12/31 08:13:40;;;;;;;42.43;17.77;;;;;;;7.36;96.45;99700.09;1808338;78;21353;-79
2020/12/31 08:16:09;;;;;;;45.78;22.52;;;;;;;7.40;96.50;99704.80;1737034;81;21000;-80
2020/12/31 08:18:37;;;;;;;47.88;22.25;;;;;;;7.41;96.56;99703.45;1686076;82;21237;-66
2020/12/31 08:21:05;;;;;;;50.85;23.00;;;;;;;7.42;96.64;99701.69;1741922;82;21189;-68
2020/12/31 08:23:39;;;;;;;49.05;23.73;;;;;;;7.40;96.71;99700.41;1736335;80;21669;-65
2020/12/31 08:26:09;;;;;;;55.23;21.82;;;;;;;7.41;96.74;99702.57;1749034;81;22391;-63
2020/12/31 08:28:38;;;;;;;50.20;21.95;;;;;;;7.40;96.75;99700.88;1754522;81;21263;-64
2020/12/31 08:31:15;;;;;;;35.63;17.23;;;;;;;7.42;96.76;99704.30;1729015;81;21175;-63
2020/12/31 08:33:43;;;;;;;58.05;25.45;;;;;;;7.39;96.79;99700.02;1750759;81;21175;-83
2020/12/31 08:36:23;;;;;;;49.50;23.10;;;;;;;7.38;96.79;99698.75;1727656;83;21152;-85
2020/12/31 08:38:53;;;;;;;51.45;22.00;;;;;;;7.37;96.73;99690.50;1749131;82;21202;-82
2020/12/31 08:41:22;;;;;;;44.58;20.92;;;;;;;7.36;96.75;99693.54;1736487;82;21201;-74
2020/12/31 08:43:50;;;;;;;46.98;20.62;;;;;;;7.37;96.78;99693.11;1705145;84;21126;-87
2020/12/31 08:46:21;;;;;;;53.23;21.75;;;;;;;7.37;96.83;99697.05;1705941;84;21645;-85
2020/12/31 08:48:54;;;;;;;47.70;21.65;;;;;;;7.34;96.81;99693.61;1724650;77;21706;-64
2020/12/31 08:51:24;;;;;;;50.28;23.55;;;;;;;7.35;96.79;99697.93;1743671;81;21210;-63
2020/12/31 08:53:56;;;;;;;42.05;20.37;;;;;;;7.35;96.88;99699.24;1750682;80;21672;-63
2020/12/31 08:56:29;;;;;;;44.67;20.82;;;;;;;7.37;96.91;99690.50;1758699;80;21173;-62
2020/12/31 08:59:21;;;;;;;46.13;20.50;;;;;;;7.37;96.90;99696.59;1751187;80;21632;-65
2020/12/31 09:01:51;;;;;;;38.88;19.00;;;;;;;7.37;96.78;99695.73;1734270;80;21221;-62
2020/12/31 09:04:19;;;;;;;39.78;18.73;;;;;;;7.37;96.79;99690.50;1708526;81;22345;-86
2020/12/31 09:06:49;;;;;;;37.70;18.95;;;;;;;7.38;96.85;99698.75;1716966;83;21136;-86
2020/12/31 09:09:26;;;;;;;36.93;17.15;;;;;;;7.39;96.86;99691.31;1695341;83;21150;-84
2020/12/31 09:12:08;;;;;;;36.88;18.90;;;;;;;7.39;96.79;99688.69;1694931;84;21153;-86
2020/12/31 09:14:37;;;;;;;37.98;20.43;;;;;;;7.41;96.72;99686.85;1696556;84;26802;-85
2020/12/31 09:17:24;;;;;;;34.13;18.42;;;;;;;7.42;96.75;99684.66;1695951;84;22647;-82
2020/12/31 09:19:55;;;;;;;61.88;33.25;;;;;;;7.44;96.79;99685.47;1697480;80;21219;-64
2020/12/31 09:22:24;;;;;;;38.10;19.45;;;;;;;7.43;96.71;99681.11;1701828;82;21227;-64
2020/12/31 09:24:53;;;;;;;38.63;20.02;;;;;;;7.40;96.51;99683.84;1703972;83;21653;-62
2020/12/31 09:27:26;;;;;;;41.63;19.62;;;;;;;7.34;96.53;99686.21;1704856;83;21172;-63
2020/12/31 09:29:59;;;;;;;35.13;17.15;;;;;;;7.27;96.67;99682.04;1698749;83;21225;-63
2020/12/31 09:32:28;;;;;;;33.73;16.82;;;;;;;7.23;96.82;99680.44;1702726;82;21669;-63
2020/12/31 09:34:58;;;;;;;32.75;16.77;;;;;;;7.20;97.10;99683.13;1715884;82;21180;-62
2020/12/31 09:37:26;;;;;;;31.40;15.53;;;;;;;7.16;97.36;99677.15;1720368;82;21175;-63
2020/12/31 09:39:54;;;;;;;42.83;19.37;;;;;;;7.13;97.49;99683.34;1712039;82;21187;-62
2020/12/31 09:42:22;;;;;;;35.48;17.00;;;;;;;7.11;97.60;99681.67;1679950;84;22085;-63
2020/12/31 09:44:52;;;;;;;39.45;18.75;;;;;;;7.06;97.79;99675.69;1681390;82;21214;-62
2020/12/31 09:47:20;;;;;;;34.95;16.30;;;;;;;6.99;98.04;99671.55;1670194;85;21194;-63
2020/12/31 09:49:48;;;;;;;35.23;16.62;;;;;;;6.97;98.35;99668.11;1675302;84;21140;-62
2020/12/31 09:52:16;;;;;;;37.98;17.05;;;;;;;6.95;98.63;99668.17;1697177;84;21247;-63
2020/12/31 09:54:43;;;;;;;36.75;17.05;;;;;;;6.93;98.83;99668.21;1668558;85;21577;-63
2020/12/31 09:57:11;;;;;;;41.50;19.15;;;;;;;6.92;98.99;99671.75;1695711;84;21214;-64
2020/12/31 09:59:39;;;;;;;40.28;18.07;;;;;;;6.89;99.24;99667.89;1699575;83;21203;-64
2020/12/31 10:02:07;;;;;;;36.17;16.40;;;;;;;6.94;99.30;99673.84;1684740;84;21415;-63
2020/12/31 10:04:35;;;;;;;39.98;15.72;;;;;;;6.96;99.34;99666.41;1698841;84;21161;-64
2020/12/31 10:07:02;;;;;;;31.45;15.48;;;;;;;6.97;99.35;99676.84;1698871;84;22208;-64
2020/12/31 10:09:32;;;;;;;32.93;16.37;;;;;;;6.99;99.35;99676.78;1698678;84;21463;-62
2020/12/31 10:12:00;;;;;;;35.25;15.18;;;;;;;7.00;99.35;99666.73;1698761;83;21193;-63
2020/12/31 10:14:28;;;;;;;33.02;16.50;;;;;;;7.03;99.35;99665.32;1698755;83;21180;-63
2020/12/31 10:16:56;;;;;;;47.75;19.05;;;;;;;7.03;99.35;99659.63;1698203;84;21211;-64
2020/12/31 10:19:26;;;;;;;30.95;14.10;;;;;;;7.04;99.35;99656.55;1697481;84;21478;-63
2020/12/31 10:21:54;;;;;;;33.85;14.85;;;;;;;7.06;99.33;99656.05;1703381;84;21266;-63
2020/12/31 10:24:22;;;;;;;36.95;14.93;;;;;;;7.04;99.33;99648.69;1705865;84;21633;-62
2020/12/31 10:26:50;;;;;;;36.75;16.23;;;;;;;7.04;99.32;99647.38;1705810;84;21662;-63
2020/12/31 10:29:18;;;;;;;33.42;15.30;;;;;;;7.03;99.35;99645.69;1734891;81;21173;-82
2020/12/31 10:31:53;;;;;;;34.20;14.38;;;;;;;7.01;99.27;99654.03;1736809;81;21364;-87
2020/12/31 10:34:22;;;;;;;37.65;16.95;;;;;;;6.98;99.35;99651.52;1737351;82;21134;-85
2020/12/31 10:36:54;;;;;;;37.67;15.83;;;;;;;6.96;99.45;99642.84;1737664;82;21115;-83
2020/12/31 10:39:23;;;;;;;31.93;15.93;;;;;;;6.98;99.44;99641.89;1737595;82;21150;-84
2020/12/31 10:41:51;;;;;;;30.82;15.00;;;;;;;6.99;99.43;99651.91;1737980;82;21146;-84
2020/12/31 10:44:19;;;;;;;32.70;15.95;;;;;;;6.98;99.29;99644.97;1719735;79;21394;-65
2020/12/31 10:46:46;;;;;;;31.17;15.98;;;;;;;6.97;99.33;99640.63;1714817;82;21649;-65
2020/12/31 10:49:14;;;;;;;32.15;14.70;;;;;;;6.91;99.31;99629.44;1727767;82;21142;-66
2020/12/31 10:51:42;;;;;;;30.72;16.07;;;;;;;6.94;99.35;99626.72;1725422;82;21672;-65
2020/12/31 10:54:12;;;;;;;30.68;13.20;;;;;;;6.96;99.36;99619.28;1726546;81;22372;-65
2020/12/31 10:56:39;;;;;;;32.55;15.18;;;;;;;6.94;99.35;99620.17;1735036;81;21270;-65
2020/12/31 10:59:07;;;;;;;32.65;14.87;;;;;;;6.96;99.37;99619.28;1734387;79;21143;-75
2020/12/31 11:01:34;;;;;;;38.28;17.85;;;;;;;6.99;99.35;99606.09;1734134;81;21152;-79
2020/12/31 11:04:02;;;;;;;30.72;13.60;;;;;;;7.02;99.26;99616.49;1726214;82;21123;-83
2020/12/31 11:06:32;;;;;;;64.35;23.52;;;;;;;7.06;99.24;99612.85;1746614;81;22479;-75
2020/12/31 11:09:00;;;;;;;33.73;15.50;;;;;;;7.06;99.10;99608.50;1704097;82;21401;-77
2020/12/31 11:14:08;;;;;;;33.67;15.47;;;;;;;7.04;98.86;99615.54;1823016;76;26627;-76
2020/12/31 11:16:38;;;;;;;42.80;17.32;;;;;;;6.99;98.89;99613.95;1774383;79;21639;-75
2020/12/31 11:19:06;;;;;;;34.83;16.02;;;;;;;6.94;99.02;99615.39;1727850;80;21285;-75
2020/12/31 11:21:33;;;;;;;34.88;16.48;;;;;;;6.94;99.11;99617.55;1734399;82;21208;-75
2020/12/31 11:24:01;;;;;;;33.65;16.07;;;;;;;6.94;99.16;99618.86;1769105;80;21145;-75
2020/12/31 11:26:29;;;;;;;39.65;16.37;;;;;;;6.95;99.15;99615.82;1736436;80;21220;-76
2020/12/31 11:28:57;;;;;;;39.58;16.05;;;;;;;6.95;99.11;99613.20;1716462;82;21180;-76
2020/12/31 11:31:29;;;;;;;37.63;16.93;;;;;;;6.97;99.13;99614.44;1748121;81;21297;-74
2020/12/31 11:33:57;;;;;;;33.48;15.72;;;;;;;6.96;99.06;99616.67;1734853;82;21209;-75
2020/12/31 11:36:25;;;;;;;32.70;15.30;;;;;;;6.96;99.06;99617.52;1728978;82;21599;-75
2020/12/31 11:38:53;;;;;;;38.17;15.83;;;;;;;6.97;99.07;99620.98;1728369;82;22257;-76
2020/12/31 11:41:20;;;;;;;32.35;13.55;;;;;;;6.95;99.12;99618.44;1733149;81;21212;-76
2020/12/31 11:43:49;;;;;;;32.55;15.53;;;;;;;6.94;99.13;99620.17;1782334;80;22726;-77
2020/12/31 11:46:17;;;;;;;31.60;14.87;;;;;;;6.96;99.10;99618.83;1761477;80;21216;-73
2020/12/31 11:48:46;;;;;;;30.15;14.80;;;;;;;6.98;99.12;99610.94;1728651;80;21111;-74